sensor_id;sensor_type;location;lat;lon;timestamp;temperature;humidity
78788;DHT22;68131;52.508;5.502;2024-03-23T00:55:25;9.70;71.30
78788;DHT22;68131;52.508;5.502;2024-03-23T00:57:52;9.80;71.30
78788;DHT22;68131;52.508;5.502;2024-03-23T01:00:18;9.80;71.40
78788;DHT22;68131;52.508;5.502;2024-03-23T01:02:48;9.80;71.30
78788;DHT22;68131;52.508;5.502;2024-03-23T01:05:14;9.80;71.40
78788;DHT22;68131;52.508;5.502;2024-03-23T01:07:43;9.80;71.40
78788;DHT22;68131;52.508;5.502;2024-03-23T01:10:09;9.80;71.50
78788;DHT22;68131;52.508;5.502;2024-03-23T01:12:37;9.80;71.60
78788;DHT22;68131;52.508;5.502;2024-03-23T01:15:04;9.80;71.60
78788;DHT22;68131;52.508;5.502;2024-03-23T01:17:30;9.80;71.60
78788;DHT22;68131;52.508;5.502;2024-03-23T01:20:00;9.80;71.60
78788;DHT22;68131;52.508;5.502;2024-03-23T01:22:26;9.80;71.60
78788;DHT22;68131;52.508;5.502;2024-03-23T01:24:53;9.80;71.60
78788;DHT22;68131;52.508;5.502;2024-03-23T01:27:19;9.80;71.60
78788;DHT22;68131;52.508;5.502;2024-03-23T01:29:46;9.80;71.60
78788;DHT22;68131;52.508;5.502;2024-03-23T01:32:14;9.80;71.60
78788;DHT22;68131;52.508;5.502;2024-03-23T01:34:40;9.80;71.50
78788;DHT22;68131;52.508;5.502;2024-03-23T01:37:14;9.80;71.50
78788;DHT22;68131;52.508;5.502;2024-03-23T01:39:50;9.80;71.50
78788;DHT22;68131;52.508;5.502;2024-03-23T01:42:17;9.80;71.50
78788;DHT22;68131;52.508;5.502;2024-03-23T01:44:44;9.80;71.50
78788;DHT22;68131;52.508;5.502;2024-03-23T01:47:10;9.80;71.50
78788;DHT22;68131;52.508;5.502;2024-03-23T01:49:37;9.80;71.40
78788;DHT22;68131;52.508;5.502;2024-03-23T01:52:06;9.80;71.40
78788;DHT22;68131;52.508;5.502;2024-03-23T01:54:36;9.70;71.40
78788;DHT22;68131;52.508;5.502;2024-03-23T01:57:03;9.70;71.40
78788;DHT22;68131;52.508;5.502;2024-03-23T01:59:29;9.70;71.40
78788;DHT22;68131;52.508;5.502;2024-03-23T02:01:58;9.70;71.40
78788;DHT22;68131;52.508;5.502;2024-03-23T02:04:25;9.70;71.20
78788;DHT22;68131;52.508;5.502;2024-03-23T02:06:51;9.60;71.10
78788;DHT22;68131;52.508;5.502;2024-03-23T02:09:18;9.60;71.20
78788;DHT22;68131;52.508;5.502;2024-03-23T02:11:47;9.60;71.20
78788;DHT22;68131;52.508;5.502;2024-03-23T02:14:14;9.60;71.20
78788;DHT22;68131;52.508;5.502;2024-03-23T02:16:40;9.60;71.30
78788;DHT22;68131;52.508;5.502;2024-03-23T02:19:08;9.60;71.30
78788;DHT22;68131;52.508;5.502;2024-03-23T02:21:35;9.60;71.20
78788;DHT22;68131;52.508;5.502;2024-03-23T02:24:09;9.60;71.20
78788;DHT22;68131;52.508;5.502;2024-03-23T02:26:35;9.60;71.20
78788;DHT22;68131;52.508;5.502;2024-03-23T02:29:02;9.60;71.20
78788;DHT22;68131;52.508;5.502;2024-03-23T02:31:31;9.50;71.00
78788;DHT22;68131;52.508;5.502;2024-03-23T02:33:57;9.50;70.80
78788;DHT22;68131;52.508;5.502;2024-03-23T02:36:24;9.50;70.80
78788;DHT22;68131;52.508;5.502;2024-03-23T02:38:53;9.40;70.70
78788;DHT22;68131;52.508;5.502;2024-03-23T02:41:22;9.40;70.80
78788;DHT22;68131;52.508;5.502;2024-03-23T02:43:49;9.40;70.40
78788;DHT22;68131;52.508;5.502;2024-03-23T02:46:16;9.40;70.20
78788;DHT22;68131;52.508;5.502;2024-03-23T02:48:44;9.40;70.20
78788;DHT22;68131;52.508;5.502;2024-03-23T02:51:10;9.40;70.20
78788;DHT22;68131;52.508;5.502;2024-03-23T02:53:39;9.40;70.30
78788;DHT22;68131;52.508;5.502;2024-03-23T02:56:06;9.30;70.00
78788;DHT22;68131;52.508;5.502;2024-03-23T02:58:35;9.30;69.90
78788;DHT22;68131;52.508;5.502;2024-03-23T03:01:01;9.30;69.90
78788;DHT22;68131;52.508;5.502;2024-03-23T03:03:28;9.30;69.90
78788;DHT22;68131;52.508;5.502;2024-03-23T03:05:55;9.20;69.80
78788;DHT22;68131;52.508;5.502;2024-03-23T03:08:22;9.20;69.90
78788;DHT22;68131;52.508;5.502;2024-03-23T03:10:49;9.20;69.80
78788;DHT22;68131;52.508;5.502;2024-03-23T03:13:15;9.20;69.90
78788;DHT22;68131;52.508;5.502;2024-03-23T03:15:46;9.20;69.80
78788;DHT22;68131;52.508;5.502;2024-03-23T03:18:12;9.20;69.80
78788;DHT22;68131;52.508;5.502;2024-03-23T03:20:39;9.20;69.80
78788;DHT22;68131;52.508;5.502;2024-03-23T03:23:07;9.20;69.70
78788;DHT22;68131;52.508;5.502;2024-03-23T03:25:37;9.20;69.60
78788;DHT22;68131;52.508;5.502;2024-03-23T03:28:06;9.20;69.30
78788;DHT22;68131;52.508;5.502;2024-03-23T03:30:32;9.20;68.80
78788;DHT22;68131;52.508;5.502;2024-03-23T03:33:04;9.20;68.90
78788;DHT22;68131;52.508;5.502;2024-03-23T03:35:30;9.20;68.90
78788;DHT22;68131;52.508;5.502;2024-03-23T03:37:57;9.20;69.10
78788;DHT22;68131;52.508;5.502;2024-03-23T03:40:24;9.20;69.20
78788;DHT22;68131;52.508;5.502;2024-03-23T03:42:50;9.10;69.20
78788;DHT22;68131;52.508;5.502;2024-03-23T03:45:17;9.10;69.20
78788;DHT22;68131;52.508;5.502;2024-03-23T03:47:45;9.10;69.20
78788;DHT22;68131;52.508;5.502;2024-03-23T03:50:16;9.10;69.20
78788;DHT22;68131;52.508;5.502;2024-03-23T03:52:43;9.10;69.30
78788;DHT22;68131;52.508;5.502;2024-03-23T03:55:13;9.10;69.30
78788;DHT22;68131;52.508;5.502;2024-03-23T03:57:40;9.10;69.30
78788;DHT22;68131;52.508;5.502;2024-03-23T04:00:08;9.10;69.20
78788;DHT22;68131;52.508;5.502;2024-03-23T04:02:35;9.10;69.20
78788;DHT22;68131;52.508;5.502;2024-03-23T04:05:05;9.10;69.20
78788;DHT22;68131;52.508;5.502;2024-03-23T04:07:35;9.10;69.20
78788;DHT22;68131;52.508;5.502;2024-03-23T04:10:01;9.10;69.10
78788;DHT22;68131;52.508;5.502;2024-03-23T04:12:29;9.10;69.00
78788;DHT22;68131;52.508;5.502;2024-03-23T04:14:56;9.10;68.70
78788;DHT22;68131;52.508;5.502;2024-03-23T04:17:23;9.10;68.80
78788;DHT22;68131;52.508;5.502;2024-03-23T04:19:54;9.10;68.90
78788;DHT22;68131;52.508;5.502;2024-03-23T04:22:23;9.10;68.90
78788;DHT22;68131;52.508;5.502;2024-03-23T04:24:53;9.10;69.00
78788;DHT22;68131;52.508;5.502;2024-03-23T04:27:19;9.10;68.80
78788;DHT22;68131;52.508;5.502;2024-03-23T04:29:49;9.00;68.90
78788;DHT22;68131;52.508;5.502;2024-03-23T04:32:16;9.10;68.90
78788;DHT22;68131;52.508;5.502;2024-03-23T04:34:43;9.10;68.90
78788;DHT22;68131;52.508;5.502;2024-03-23T04:37:11;9.10;68.80
78788;DHT22;68131;52.508;5.502;2024-03-23T04:39:38;9.10;68.80
78788;DHT22;68131;52.508;5.502;2024-03-23T04:42:08;9.10;68.80
78788;DHT22;68131;52.508;5.502;2024-03-23T04:44:34;9.10;68.80
78788;DHT22;68131;52.508;5.502;2024-03-23T04:47:01;9.00;68.80
78788;DHT22;68131;52.508;5.502;2024-03-23T04:49:27;9.00;68.70
78788;DHT22;68131;52.508;5.502;2024-03-23T04:51:54;9.00;68.80
78788;DHT22;68131;52.508;5.502;2024-03-23T04:54:21;9.00;68.80
78788;DHT22;68131;52.508;5.502;2024-03-23T04:56:49;9.00;68.80
78788;DHT22;68131;52.508;5.502;2024-03-23T04:59:18;9.00;68.70
78788;DHT22;68131;52.508;5.502;2024-03-23T05:01:46;9.00;68.60
78788;DHT22;68131;52.508;5.502;2024-03-23T05:04:12;9.00;68.50
78788;DHT22;68131;52.508;5.502;2024-03-23T05:06:39;9.00;68.60
78788;DHT22;68131;52.508;5.502;2024-03-23T05:09:05;9.00;68.50
78788;DHT22;68131;52.508;5.502;2024-03-23T05:11:32;9.00;68.50
78788;DHT22;68131;52.508;5.502;2024-03-23T05:14:00;9.00;68.60
78788;DHT22;68131;52.508;5.502;2024-03-23T05:16:29;9.00;68.60
78788;DHT22;68131;52.508;5.502;2024-03-23T05:18:56;9.00;68.60
78788;DHT22;68131;52.508;5.502;2024-03-23T05:21:23;9.00;68.70
78788;DHT22;68131;52.508;5.502;2024-03-23T05:23:49;8.90;68.70
78788;DHT22;68131;52.508;5.502;2024-03-23T05:26:16;9.00;68.80
78788;DHT22;68131;52.508;5.502;2024-03-23T05:28:43;9.00;68.60
78788;DHT22;68131;52.508;5.502;2024-03-23T05:31:10;9.00;68.60
78788;DHT22;68131;52.508;5.502;2024-03-23T05:33:39;9.00;68.60
78788;DHT22;68131;52.508;5.502;2024-03-23T05:36:06;9.00;68.60
78788;DHT22;68131;52.508;5.502;2024-03-23T05:38:33;9.00;68.70
78788;DHT22;68131;52.508;5.502;2024-03-23T05:41:00;9.00;68.80
78788;DHT22;68131;52.508;5.502;2024-03-23T05:43:27;9.00;68.70
78788;DHT22;68131;52.508;5.502;2024-03-23T05:45:54;9.00;68.80
78788;DHT22;68131;52.508;5.502;2024-03-23T05:48:22;9.10;68.80
78788;DHT22;68131;52.508;5.502;2024-03-23T05:50:54;9.10;68.70
78788;DHT22;68131;52.508;5.502;2024-03-23T05:53:21;9.10;68.70
78788;DHT22;68131;52.508;5.502;2024-03-23T05:55:50;9.10;68.60
78788;DHT22;68131;52.508;5.502;2024-03-23T05:58:17;9.10;68.70
78788;DHT22;68131;52.508;5.502;2024-03-23T06:00:44;9.10;68.70
78788;DHT22;68131;52.508;5.502;2024-03-23T06:03:13;9.10;68.60
78788;DHT22;68131;52.508;5.502;2024-03-23T06:05:39;9.20;68.70
78788;DHT22;68131;52.508;5.502;2024-03-23T06:08:08;9.20;68.70
78788;DHT22;68131;52.508;5.502;2024-03-23T06:10:36;9.20;68.70
78788;DHT22;68131;52.508;5.502;2024-03-23T06:13:04;9.20;68.50
78788;DHT22;68131;52.508;5.502;2024-03-23T06:15:31;9.10;68.50
78788;DHT22;68131;52.508;5.502;2024-03-23T06:17:57;9.10;68.70
78788;DHT22;68131;52.508;5.502;2024-03-23T06:20:24;9.10;68.70
78788;DHT22;68131;52.508;5.502;2024-03-23T06:22:51;9.10;68.70
78788;DHT22;68131;52.508;5.502;2024-03-23T06:25:20;9.00;68.80
78788;DHT22;68131;52.508;5.502;2024-03-23T06:27:46;9.10;69.00
78788;DHT22;68131;52.508;5.502;2024-03-23T06:30:14;9.10;69.00
78788;DHT22;68131;52.508;5.502;2024-03-23T06:32:41;9.10;69.30
78788;DHT22;68131;52.508;5.502;2024-03-23T06:35:09;9.10;69.40
78788;DHT22;68131;52.508;5.502;2024-03-23T06:37:36;9.00;69.50
78788;DHT22;68131;52.508;5.502;2024-03-23T06:40:04;9.00;69.60
78788;DHT22;68131;52.508;5.502;2024-03-23T06:42:35;9.00;69.80
78788;DHT22;68131;52.508;5.502;2024-03-23T06:45:02;9.00;70.00
78788;DHT22;68131;52.508;5.502;2024-03-23T06:47:28;9.00;70.30
78788;DHT22;68131;52.508;5.502;2024-03-23T06:49:55;8.90;70.50
78788;DHT22;68131;52.508;5.502;2024-03-23T06:52:22;8.90;70.50
78788;DHT22;68131;52.508;5.502;2024-03-23T06:54:48;9.00;70.60
78788;DHT22;68131;52.508;5.502;2024-03-23T06:57:15;9.00;70.60
78788;DHT22;68131;52.508;5.502;2024-03-23T06:59:44;9.20;70.70
78788;DHT22;68131;52.508;5.502;2024-03-23T07:02:11;9.40;70.20
78788;DHT22;68131;52.508;5.502;2024-03-23T07:04:37;9.40;70.00
78788;DHT22;68131;52.508;5.502;2024-03-23T07:07:04;9.50;69.80
78788;DHT22;68131;52.508;5.502;2024-03-23T07:09:31;9.50;69.60
78788;DHT22;68131;52.508;5.502;2024-03-23T07:11:58;9.50;69.60
78788;DHT22;68131;52.508;5.502;2024-03-23T07:14:24;9.50;69.60
78788;DHT22;68131;52.508;5.502;2024-03-23T07:16:54;9.50;69.70
78788;DHT22;68131;52.508;5.502;2024-03-23T07:19:20;9.50;69.60
78788;DHT22;68131;52.508;5.502;2024-03-23T07:21:47;9.40;69.50
78788;DHT22;68131;52.508;5.502;2024-03-23T07:24:16;9.30;69.10
78788;DHT22;68131;52.508;5.502;2024-03-23T07:26:42;9.30;69.20
78788;DHT22;68131;52.508;5.502;2024-03-23T07:29:09;9.20;69.40
78788;DHT22;68131;52.508;5.502;2024-03-23T07:31:38;9.20;69.60
78788;DHT22;68131;52.508;5.502;2024-03-23T07:34:09;9.20;69.60
78788;DHT22;68131;52.508;5.502;2024-03-23T07:36:37;9.20;69.80
78788;DHT22;68131;52.508;5.502;2024-03-23T07:39:04;9.30;69.80
78788;DHT22;68131;52.508;5.502;2024-03-23T07:41:31;9.30;69.80
78788;DHT22;68131;52.508;5.502;2024-03-23T07:43:58;9.30;69.70
78788;DHT22;68131;52.508;5.502;2024-03-23T07:46:25;9.20;69.50
78788;DHT22;68131;52.508;5.502;2024-03-23T07:48:52;9.20;69.30
78788;DHT22;68131;52.508;5.502;2024-03-23T07:51:21;9.20;69.10
78788;DHT22;68131;52.508;5.502;2024-03-23T07:53:51;9.20;68.70
78788;DHT22;68131;52.508;5.502;2024-03-23T07:56:18;9.10;68.50
78788;DHT22;68131;52.508;5.502;2024-03-23T07:58:45;9.10;68.90
78788;DHT22;68131;52.508;5.502;2024-03-23T08:01:13;9.10;69.20
78788;DHT22;68131;52.508;5.502;2024-03-23T08:03:42;9.30;69.40
78788;DHT22;68131;52.508;5.502;2024-03-23T08:06:10;9.60;69.30
78788;DHT22;68131;52.508;5.502;2024-03-23T08:08:41;9.90;69.00
78788;DHT22;68131;52.508;5.502;2024-03-23T08:11:08;10.10;68.30
78788;DHT22;68131;52.508;5.502;2024-03-23T08:13:35;10.20;68.10
78788;DHT22;68131;52.508;5.502;2024-03-23T08:16:03;10.30;67.90
78788;DHT22;68131;52.508;5.502;2024-03-23T08:18:32;10.60;67.90
78788;DHT22;68131;52.508;5.502;2024-03-23T08:21:02;11.00;67.50
78788;DHT22;68131;52.508;5.502;2024-03-23T08:23:30;11.10;67.00
78788;DHT22;68131;52.508;5.502;2024-03-23T08:26:00;11.30;67.00
78788;DHT22;68131;52.508;5.502;2024-03-23T08:28:28;11.40;66.60
78788;DHT22;68131;52.508;5.502;2024-03-23T08:30:55;11.40;65.90
78788;DHT22;68131;52.508;5.502;2024-03-23T08:33:22;11.30;65.20
78788;DHT22;68131;52.508;5.502;2024-03-23T08:35:54;11.30;65.20
78788;DHT22;68131;52.508;5.502;2024-03-23T08:38:21;11.10;64.30
78788;DHT22;68131;52.508;5.502;2024-03-23T08:40:48;10.90;64.60
78788;DHT22;68131;52.508;5.502;2024-03-23T08:43:17;10.80;64.40
78788;DHT22;68131;52.508;5.502;2024-03-23T08:45:43;10.80;64.60
78788;DHT22;68131;52.508;5.502;2024-03-23T08:48:10;10.80;64.20
78788;DHT22;68131;52.508;5.502;2024-03-23T08:50:36;10.70;63.70
78788;DHT22;68131;52.508;5.502;2024-03-23T08:53:03;10.60;63.90
78788;DHT22;68131;52.508;5.502;2024-03-23T08:55:31;10.70;64.10
78788;DHT22;68131;52.508;5.502;2024-03-23T08:57:57;10.80;63.80
78788;DHT22;68131;52.508;5.502;2024-03-23T09:00:27;11.00;63.40
78788;DHT22;68131;52.508;5.502;2024-03-23T09:02:53;11.10;63.30
78788;DHT22;68131;52.508;5.502;2024-03-23T09:05:22;11.10;62.70
78788;DHT22;68131;52.508;5.502;2024-03-23T09:07:48;11.10;63.30
78788;DHT22;68131;52.508;5.502;2024-03-23T09:10:15;11.30;63.50
78788;DHT22;68131;52.508;5.502;2024-03-23T09:12:41;11.60;63.10
78788;DHT22;68131;52.508;5.502;2024-03-23T09:15:08;11.90;62.00
78788;DHT22;68131;52.508;5.502;2024-03-23T09:17:37;12.00;61.40
78788;DHT22;68131;52.508;5.502;2024-03-23T09:20:05;12.30;61.10
78788;DHT22;68131;52.508;5.502;2024-03-23T09:22:32;12.60;61.30
78788;DHT22;68131;52.508;5.502;2024-03-23T09:24:58;12.80;60.40
78788;DHT22;68131;52.508;5.502;2024-03-23T09:27:28;12.80;59.50
78788;DHT22;68131;52.508;5.502;2024-03-23T09:29:55;12.60;59.00
78788;DHT22;68131;52.508;5.502;2024-03-23T09:32:21;12.30;58.50
78788;DHT22;68131;52.508;5.502;2024-03-23T09:34:50;11.90;58.50
78788;DHT22;68131;52.508;5.502;2024-03-23T09:37:17;11.60;58.50
78788;DHT22;68131;52.508;5.502;2024-03-23T09:39:44;11.50;58.90
78788;DHT22;68131;52.508;5.502;2024-03-23T09:42:12;11.60;59.50
78788;DHT22;68131;52.508;5.502;2024-03-23T09:44:39;11.80;59.60
78788;DHT22;68131;52.508;5.502;2024-03-23T09:47:05;12.10;58.80
78788;DHT22;68131;52.508;5.502;2024-03-23T09:49:32;12.20;58.90
78788;DHT22;68131;52.508;5.502;2024-03-23T09:52:03;12.40;59.30
78788;DHT22;68131;52.508;5.502;2024-03-23T09:54:33;12.40;59.40
78788;DHT22;68131;52.508;5.502;2024-03-23T09:57:01;12.30;59.30
78788;DHT22;68131;52.508;5.502;2024-03-23T09:59:30;12.20;59.90
78788;DHT22;68131;52.508;5.502;2024-03-23T10:01:57;12.30;60.50
78788;DHT22;68131;52.508;5.502;2024-03-23T10:04:36;12.60;60.60
78788;DHT22;68131;52.508;5.502;2024-03-23T10:07:13;12.80;59.40
78788;DHT22;68131;52.508;5.502;2024-03-23T10:09:42;12.80;58.10
78788;DHT22;68131;52.508;5.502;2024-03-23T10:12:10;12.70;58.50
78788;DHT22;68131;52.508;5.502;2024-03-23T10:14:39;12.50;58.60
78788;DHT22;68131;52.508;5.502;2024-03-23T10:17:12;12.40;58.80
78788;DHT22;68131;52.508;5.502;2024-03-23T10:19:41;12.40;59.10
78788;DHT22;68131;52.508;5.502;2024-03-23T10:22:13;12.40;59.60
78788;DHT22;68131;52.508;5.502;2024-03-23T10:24:40;12.50;59.40
78788;DHT22;68131;52.508;5.502;2024-03-23T10:27:06;12.40;58.10
78788;DHT22;68131;52.508;5.502;2024-03-23T10:29:33;12.20;57.90
78788;DHT22;68131;52.508;5.502;2024-03-23T10:32:10;12.10;57.80
78788;DHT22;68131;52.508;5.502;2024-03-23T10:34:36;12.00;58.10
78788;DHT22;68131;52.508;5.502;2024-03-23T10:37:05;11.90;58.10
78788;DHT22;68131;52.508;5.502;2024-03-23T10:39:40;11.80;57.80
78788;DHT22;68131;52.508;5.502;2024-03-23T10:42:08;11.70;58.20
78788;DHT22;68131;52.508;5.502;2024-03-23T10:44:35;11.70;58.80
78788;DHT22;68131;52.508;5.502;2024-03-23T10:47:03;11.80;58.70
78788;DHT22;68131;52.508;5.502;2024-03-23T10:49:32;11.80;58.50
78788;DHT22;68131;52.508;5.502;2024-03-23T10:51:59;11.60;58.20
78788;DHT22;68131;52.508;5.502;2024-03-23T10:54:26;11.50;59.00
78788;DHT22;68131;52.508;5.502;2024-03-23T10:57:01;11.60;59.90
78788;DHT22;68131;52.508;5.502;2024-03-23T10:59:30;11.60;60.60
78788;DHT22;68131;52.508;5.502;2024-03-23T11:01:57;11.60;61.40
78788;DHT22;68131;52.508;5.502;2024-03-23T11:04:31;11.60;61.20
78788;DHT22;68131;52.508;5.502;2024-03-23T11:06:58;11.60;61.00
78788;DHT22;68131;52.508;5.502;2024-03-23T11:09:40;11.60;60.70
78788;DHT22;68131;52.508;5.502;2024-03-23T11:12:28;11.60;60.80
78788;DHT22;68131;52.508;5.502;2024-03-23T11:14:57;11.60;61.10
78788;DHT22;68131;52.508;5.502;2024-03-23T11:17:25;11.60;61.20
78788;DHT22;68131;52.508;5.502;2024-03-23T11:20:02;11.60;61.10
78788;DHT22;68131;52.508;5.502;2024-03-23T11:22:43;11.70;61.10
78788;DHT22;68131;52.508;5.502;2024-03-23T11:25:17;11.80;61.10
78788;DHT22;68131;52.508;5.502;2024-03-23T11:27:47;11.80;61.20
78788;DHT22;68131;52.508;5.502;2024-03-23T11:30:17;11.80;61.50
78788;DHT22;68131;52.508;5.502;2024-03-23T11:32:45;11.90;61.20
78788;DHT22;68131;52.508;5.502;2024-03-23T11:35:29;11.80;61.20
78788;DHT22;68131;52.508;5.502;2024-03-23T11:38:07;11.80;60.70
78788;DHT22;68131;52.508;5.502;2024-03-23T11:40:34;11.80;60.30
78788;DHT22;68131;52.508;5.502;2024-03-23T11:43:04;11.80;60.00
78788;DHT22;68131;52.508;5.502;2024-03-23T11:45:35;11.70;59.80
78788;DHT22;68131;52.508;5.502;2024-03-23T11:48:07;11.60;59.70
78788;DHT22;68131;52.508;5.502;2024-03-23T11:50:36;11.50;59.50
78788;DHT22;68131;52.508;5.502;2024-03-23T11:53:17;11.40;59.50
78788;DHT22;68131;52.508;5.502;2024-03-23T11:55:47;11.40;59.60
78788;DHT22;68131;52.508;5.502;2024-03-23T11:58:19;11.40;59.70
78788;DHT22;68131;52.508;5.502;2024-03-23T12:00:50;11.40;59.90
78788;DHT22;68131;52.508;5.502;2024-03-23T12:03:20;11.40;60.50
78788;DHT22;68131;52.508;5.502;2024-03-23T12:05:48;11.30;61.10
78788;DHT22;68131;52.508;5.502;2024-03-23T12:08:17;11.10;61.30
78788;DHT22;68131;52.508;5.502;2024-03-23T12:10:47;11.00;61.60
78788;DHT22;68131;52.508;5.502;2024-03-23T12:13:18;10.90;61.90
78788;DHT22;68131;52.508;5.502;2024-03-23T12:15:45;10.70;61.40
78788;DHT22;68131;52.508;5.502;2024-03-23T12:18:13;10.50;61.50
78788;DHT22;68131;52.508;5.502;2024-03-23T12:20:40;10.20;62.00
78788;DHT22;68131;52.508;5.502;2024-03-23T12:23:08;10.10;62.40
78788;DHT22;68131;52.508;5.502;2024-03-23T12:25:36;10.20;63.70
78788;DHT22;68131;52.508;5.502;2024-03-23T12:28:03;10.30;63.70
78788;DHT22;68131;52.508;5.502;2024-03-23T12:30:35;10.40;64.10
78788;DHT22;68131;52.508;5.502;2024-03-23T12:33:03;10.50;64.30
78788;DHT22;68131;52.508;5.502;2024-03-23T12:35:29;10.70;64.00
78788;DHT22;68131;52.508;5.502;2024-03-23T12:37:56;10.70;64.30
78788;DHT22;68131;52.508;5.502;2024-03-23T12:40:23;10.80;64.10
78788;DHT22;68131;52.508;5.502;2024-03-23T12:42:51;10.80;64.00
78788;DHT22;68131;52.508;5.502;2024-03-23T12:45:18;10.80;63.70
78788;DHT22;68131;52.508;5.502;2024-03-23T12:47:49;10.80;63.50
78788;DHT22;68131;52.508;5.502;2024-03-23T12:50:15;10.80;63.30
78788;DHT22;68131;52.508;5.502;2024-03-23T12:52:42;10.80;63.90
78788;DHT22;68131;52.508;5.502;2024-03-23T12:55:13;10.70;63.90
78788;DHT22;68131;52.508;5.502;2024-03-23T12:57:39;10.60;64.50
78788;DHT22;68131;52.508;5.502;2024-03-23T13:00:07;10.60;64.70
78788;DHT22;68131;52.508;5.502;2024-03-23T13:02:35;10.50;64.80
78788;DHT22;68131;52.508;5.502;2024-03-23T13:05:06;10.50;65.00
78788;DHT22;68131;52.508;5.502;2024-03-23T13:07:34;10.60;65.30
78788;DHT22;68131;52.508;5.502;2024-03-23T13:10:03;10.70;65.50
78788;DHT22;68131;52.508;5.502;2024-03-23T13:12:29;10.80;65.50
78788;DHT22;68131;52.508;5.502;2024-03-23T13:14:56;10.90;64.90
78788;DHT22;68131;52.508;5.502;2024-03-23T13:17:23;10.90;64.60
78788;DHT22;68131;52.508;5.502;2024-03-23T13:19:49;10.90;64.80
78788;DHT22;68131;52.508;5.502;2024-03-23T13:22:18;10.90;64.60
78788;DHT22;68131;52.508;5.502;2024-03-23T13:24:45;11.00;64.70
78788;DHT22;68131;52.508;5.502;2024-03-23T13:27:11;11.00;64.60
78788;DHT22;68131;52.508;5.502;2024-03-23T13:29:39;11.00;64.40
78788;DHT22;68131;52.508;5.502;2024-03-23T13:32:06;11.00;63.90
78788;DHT22;68131;52.508;5.502;2024-03-23T13:34:33;10.90;64.00
78788;DHT22;68131;52.508;5.502;2024-03-23T13:37:01;10.90;64.00
78788;DHT22;68131;52.508;5.502;2024-03-23T13:39:30;10.80;64.30
78788;DHT22;68131;52.508;5.502;2024-03-23T13:41:57;10.80;64.50
78788;DHT22;68131;52.508;5.502;2024-03-23T13:44:26;10.80;64.00
78788;DHT22;68131;52.508;5.502;2024-03-23T13:46:53;10.80;64.10
78788;DHT22;68131;52.508;5.502;2024-03-23T13:49:27;10.90;62.60
78788;DHT22;68131;52.508;5.502;2024-03-23T13:51:53;10.90;62.00
78788;DHT22;68131;52.508;5.502;2024-03-23T13:54:20;10.90;61.80
78788;DHT22;68131;52.508;5.502;2024-03-23T13:56:50;11.00;61.70
78788;DHT22;68131;52.508;5.502;2024-03-23T13:59:18;11.00;61.80
78788;DHT22;68131;52.508;5.502;2024-03-23T14:01:45;11.10;61.30
78788;DHT22;68131;52.508;5.502;2024-03-23T14:04:12;11.10;61.10
78788;DHT22;68131;52.508;5.502;2024-03-23T14:06:41;11.10;61.10
78788;DHT22;68131;52.508;5.502;2024-03-23T14:09:07;11.00;61.40
78788;DHT22;68131;52.508;5.502;2024-03-23T14:11:35;11.00;61.50
78788;DHT22;68131;52.508;5.502;2024-03-23T14:14:07;11.00;61.70
78788;DHT22;68131;52.508;5.502;2024-03-23T14:16:34;11.00;62.00
78788;DHT22;68131;52.508;5.502;2024-03-23T14:19:00;11.00;61.50
78788;DHT22;68131;52.508;5.502;2024-03-23T14:21:27;11.10;61.20
78788;DHT22;68131;52.508;5.502;2024-03-23T14:23:54;11.10;60.70
78788;DHT22;68131;52.508;5.502;2024-03-23T14:26:21;11.10;60.10
78788;DHT22;68131;52.508;5.502;2024-03-23T14:28:48;11.10;60.10
78788;DHT22;68131;52.508;5.502;2024-03-23T14:31:18;11.00;60.20
78788;DHT22;68131;52.508;5.502;2024-03-23T14:33:44;11.00;59.90
78788;DHT22;68131;52.508;5.502;2024-03-23T14:36:12;11.00;59.80
78788;DHT22;68131;52.508;5.502;2024-03-23T14:38:39;10.90;59.40
78788;DHT22;68131;52.508;5.502;2024-03-23T14:41:07;10.90;59.30
78788;DHT22;68131;52.508;5.502;2024-03-23T14:43:34;10.80;59.50
78788;DHT22;68131;52.508;5.502;2024-03-23T14:46:07;10.70;60.30
78788;DHT22;68131;52.508;5.502;2024-03-23T14:48:39;10.50;61.60
78788;DHT22;68131;52.508;5.502;2024-03-23T14:51:05;10.30;61.90
78788;DHT22;68131;52.508;5.502;2024-03-23T14:53:32;10.10;62.30
78788;DHT22;68131;52.508;5.502;2024-03-23T14:55:59;10.00;62.80
78788;DHT22;68131;52.508;5.502;2024-03-23T14:58:26;9.90;63.00
78788;DHT22;68131;52.508;5.502;2024-03-23T15:00:53;9.90;63.10
78788;DHT22;68131;52.508;5.502;2024-03-23T15:03:23;9.90;63.10
78788;DHT22;68131;52.508;5.502;2024-03-23T15:05:57;9.90;63.20
78788;DHT22;68131;52.508;5.502;2024-03-23T15:08:26;9.90;63.20
78788;DHT22;68131;52.508;5.502;2024-03-23T15:10:53;9.80;63.50
78788;DHT22;68131;52.508;5.502;2024-03-23T15:13:20;9.60;63.70
78788;DHT22;68131;52.508;5.502;2024-03-23T15:15:47;9.50;64.60
78788;DHT22;68131;52.508;5.502;2024-03-23T15:18:13;9.40;64.60
78788;DHT22;68131;52.508;5.502;2024-03-23T15:20:40;9.30;64.80
78788;DHT22;68131;52.508;5.502;2024-03-23T15:23:12;9.20;65.00
78788;DHT22;68131;52.508;5.502;2024-03-23T15:25:39;9.20;65.20
78788;DHT22;68131;52.508;5.502;2024-03-23T15:28:05;9.30;65.20
78788;DHT22;68131;52.508;5.502;2024-03-23T15:30:32;9.30;65.20
78788;DHT22;68131;52.508;5.502;2024-03-23T15:32:58;9.30;65.20
78788;DHT22;68131;52.508;5.502;2024-03-23T15:35:25;9.30;65.10
78788;DHT22;68131;52.508;5.502;2024-03-23T15:37:52;9.30;65.10
78788;DHT22;68131;52.508;5.502;2024-03-23T15:40:21;9.40;65.10
78788;DHT22;68131;52.508;5.502;2024-03-23T15:42:48;9.40;65.20
78788;DHT22;68131;52.508;5.502;2024-03-23T15:45:18;9.50;65.20
78788;DHT22;68131;52.508;5.502;2024-03-23T15:47:45;9.50;65.20
78788;DHT22;68131;52.508;5.502;2024-03-23T15:50:12;9.60;65.20
78788;DHT22;68131;52.508;5.502;2024-03-23T15:52:39;9.70;65.40
78788;DHT22;68131;52.508;5.502;2024-03-23T15:55:06;9.70;65.30
78788;DHT22;68131;52.508;5.502;2024-03-23T15:57:40;9.70;65.30
78788;DHT22;68131;52.508;5.502;2024-03-23T16:00:09;9.80;65.20
78788;DHT22;68131;52.508;5.502;2024-03-23T16:02:39;9.90;65.00
78788;DHT22;68131;52.508;5.502;2024-03-23T16:05:08;9.90;64.60
78788;DHT22;68131;52.508;5.502;2024-03-23T16:07:35;10.00;63.40
78788;DHT22;68131;52.508;5.502;2024-03-23T16:10:01;10.00;63.40
78788;DHT22;68131;52.508;5.502;2024-03-23T16:12:30;10.00;63.60
78788;DHT22;68131;52.508;5.502;2024-03-23T16:14:59;10.00;63.50
78788;DHT22;68131;52.508;5.502;2024-03-23T16:17:26;10.00;63.30
78788;DHT22;68131;52.508;5.502;2024-03-23T16:19:54;10.00;62.80
78788;DHT22;68131;52.508;5.502;2024-03-23T16:22:20;9.80;62.90
78788;DHT22;68131;52.508;5.502;2024-03-23T16:24:47;9.60;63.40
78788;DHT22;68131;52.508;5.502;2024-03-23T16:27:14;9.40;63.90
78788;DHT22;68131;52.508;5.502;2024-03-23T16:29:40;9.40;64.30
78788;DHT22;68131;52.508;5.502;2024-03-23T16:32:11;9.40;64.60
78788;DHT22;68131;52.508;5.502;2024-03-23T16:34:37;9.50;64.80
78788;DHT22;68131;52.508;5.502;2024-03-23T16:37:04;9.50;65.00
78788;DHT22;68131;52.508;5.502;2024-03-23T16:39:32;9.50;65.30